Agana Heights, GU

8:54 PM ChST on July 06, 2015 (GMT +1000)
Maite | | Change Station
CLOSE
Current Station
Personal Weather Station
Location: Maite, GU
Elevation: 140 ft
Nearby Weather Stations
Active Advisory: High Surf Advisory

Elev 140 ft 13.48 °N, 144.76 °E | Updated 36 seconds ago

Partly Cloudy
Partly Cloudy
82.4 °F
Feels Like 92 °F
N
5.0
Wind Variable Wind from SW
Gusts 11.0 mph

Today
High -- | Low -- °F
--% Chance of Precip.
Yesterday
High -- | Low -- °F
Precip. -- in
5:58 AM 6:52 PM
Waning Gibbous, 76% visible
Pressure 29.70 in
Visibility 10.0 miles
Clouds Few 2200 ft
Heat Index 92 °F
Dew Point 78 °F
Humidity 88%
Rainfall 0.93 in
Snow Depth Not available.
UV 0.0 out of 12
Pollen Not available.
Air Quality Not available.
Flu Activity Not available.
METAR PGUM 060954Z 18007KT 10SM FEW022 28/25 A2972 RMK AO2 SLP057 T02780250

More Conditions Fewer Conditions

Pressure 29.70 in
Visibility 10.0 miles
Clouds Few 2200 ft
Heat Index 92 °F
Dew Point 78 °F
Humidity 88%
Rainfall 0.93 in
Snow Depth Not available.
UV 0.0 out of 12
Pollen Not available.
Air Quality Not available.
Flu Activity Not available.
METAR PGUM 060954Z 18007KT 10SM FEW022 28/25 A2972 RMK AO2 SLP057 T02780250

More Conditions Fewer Conditions

10-Day Weather Forecast

×

Almanac

Astronomy

Jul. 06, 2015 Rise Set
Actual Time
Civil Twilight
Nautical Twilight
Astronomical Twilight
Moon
Length of Visible Light
Length of Day
Tomorrow will be .
, % of the Moon is Illuminated

Today's Extremes

State Highs State Lows

Community

WunderPhotos

Upload Photos

1,835,531 photos uploaded!

WunderBlogs® & News

Nearby

Air Quality

  Air Quality AQ Index Pollutant
Not available.

Snow Depth

Station Depth Elevation

Earthquake Activity

City Distance Mag. Time & Date
Minimum magnitude displayed is 2.5.

Coastal Water Temperatures

Place Temperature

Stations

Nearby Weather Stations

Station Location Temp. Windchill Dew Point Humidity Wind Precip. Elev Updated Type
                   
High Surf Advisory
Statement as of 4:21 PM GMT on July 06, 2015

... High surf advisory remains in effect until 6 am chst Tuesday...

Hazardous surf of 8 to 10 feet on south and west facing
exposures will gradually subside tonight. Surf is expected to
fall below hazardous levels Tuesday morning.

Precautionary/preparedness actions...

A high surf advisory means that high surf will affect beaches in
the advisory area... producing localized beach erosion and
dangerous swimming conditions.